Overview Statistics Trail Chart Weather Telemetry Raw packets
 

This is the latest recevied weather packets stored in our database for station/object IT9DBI-3. If no packets are shown the sender has not sent any weather packets the latest 10 day(s).

<< 18 19 20 21 22 23 24 >>
Time Temp. Humidity Pressure Rain* Wind** Luminosity Snow
1788019158 38.89° C 45% 1014.5 hPa - - - -
1788017957 38.33° C 48% 1014.6 hPa - - - -
1788016755 38.89° C 41% 1015.2 hPa - - - -
1788015554 40.56° C 35% 1015.1 hPa - - - -
1788014353 40.56° C 41% 1015.3 hPa - - - -
1788013151 38.89° C 45% 1015.9 hPa - - - -
1788011950 36.67° C 51% 1016.5 hPa - - - -
1788010753 36.11° C 57% 1016.9 hPa - - - -
1788009547 35.56° C 60% 1017.3 hPa - - - -
1788008346 35° C 59% 1017.2 hPa - - - -
1788007145 35° C 57% 1017.4 hPa - - - -
1788005944 35° C 60% 1017.2 hPa - - - -
1788004742 35.56° C 61% 1017.4 hPa - - - -
1788003541 35° C 62% 1017.6 hPa - - - -
1788002340 35° C 59% 1017.5 hPa - - - -
1788001138 35.56° C 54% 1016.8 hPa - - - -
1787999937 36.11° C 52% 1016.4 hPa - - - -
1787998736 35.56° C 57% 1016.2 hPa - - - -
1787997535 35.56° C 56% 1016.1 hPa - - - -
1787996333 36.11° C 53% 1015.9 hPa - - - -
1787995132 36.11° C 53% 1015.8 hPa - - - -
1787993931 35.56° C 51% 1015.6 hPa - - - -
1787992730 35° C 51% 1015.6 hPa - - - -
1787991528 35.56° C 49% 1015.6 hPa - - - -
1787990327 36.11° C 46% 1015.6 hPa - - - -

* Rain since midnight (hover to see other rain measurements)
** Current wind speed in m/s (hover to see current wind gust speed)